Ocean Beach, California
Current Conditions -  °F | °C
As of 6:52 AM on Thursday 30 Oct 2014 (Local Time) from KNZY Reporting Station
Haze Haze  
Wind Chill: 64°   Ceiling: 22000
Heat Index: 64°   Visibility: 5mi
Dew Point: 61°   Wind: 0mph
Humidity: 90%   Direction: NA
Pressure: 29.97"   Gusts: NA
Location:  32.741°N, 117.243°W
Report Text: KNZY 301352Z 00000KT 5SM BR SCT006 BKN220 18/16 A2997 RMK AO2 SLP147 T01780161 $
Loading
Personal Weather Stations






























Interactive Weather Map
Tropical Storm Tracking
New forecast layout! Learn more

10-Day Weather Forecast

Advertisements
Track Severe Weather on mobile